sensor_id;sensor_type;location;lat;lon;timestamp;temperature;humidity
9437;DHT22;4757;59.334;18.034;2022-12-18T00:01:22;-0.80;99.90
9437;DHT22;4757;59.334;18.034;2022-12-18T00:03:50;-0.80;99.90
9437;DHT22;4757;59.334;18.034;2022-12-18T00:06:19;-0.80;99.90
9437;DHT22;4757;59.334;18.034;2022-12-18T00:08:47;-0.80;99.90
9437;DHT22;4757;59.334;18.034;2022-12-18T00:11:17;-0.80;99.90
9437;DHT22;4757;59.334;18.034;2022-12-18T00:13:45;-0.80;99.90
9437;DHT22;4757;59.334;18.034;2022-12-18T00:16:16;-0.80;99.90
9437;DHT22;4757;59.334;18.034;2022-12-18T00:18:45;-0.80;99.90
9437;DHT22;4757;59.334;18.034;2022-12-18T00:21:14;-0.80;99.90
9437;DHT22;4757;59.334;18.034;2022-12-18T00:23:43;-0.80;99.90
9437;DHT22;4757;59.334;18.034;2022-12-18T00:26:13;-0.80;99.90
9437;DHT22;4757;59.334;18.034;2022-12-18T00:28:43;-0.80;99.90
9437;DHT22;4757;59.334;18.034;2022-12-18T00:31:12;-0.80;99.90
9437;DHT22;4757;59.334;18.034;2022-12-18T00:33:41;-0.80;99.90
9437;DHT22;4757;59.334;18.034;2022-12-18T00:36:14;-0.70;99.90
9437;DHT22;4757;59.334;18.034;2022-12-18T00:38:42;-0.80;99.90
9437;DHT22;4757;59.334;18.034;2022-12-18T00:41:11;-0.80;99.90
9437;DHT22;4757;59.334;18.034;2022-12-18T00:43:39;-0.80;99.90
9437;DHT22;4757;59.334;18.034;2022-12-18T00:46:07;-0.80;99.90
9437;DHT22;4757;59.334;18.034;2022-12-18T00:48:35;-0.80;99.90
9437;DHT22;4757;59.334;18.034;2022-12-18T00:51:03;-0.80;99.90
9437;DHT22;4757;59.334;18.034;2022-12-18T00:53:30;-0.70;99.90
9437;DHT22;4757;59.334;18.034;2022-12-18T00:55:57;-0.80;99.90
9437;DHT22;4757;59.334;18.034;2022-12-18T00:58:23;-0.70;99.90
9437;DHT22;4757;59.334;18.034;2022-12-18T01:00:50;-0.80;99.90
9437;DHT22;4757;59.334;18.034;2022-12-18T01:03:17;-0.70;99.90
9437;DHT22;4757;59.334;18.034;2022-12-18T01:05:45;-0.70;99.90
9437;DHT22;4757;59.334;18.034;2022-12-18T01:08:12;-0.80;99.90
9437;DHT22;4757;59.334;18.034;2022-12-18T01:10:42;-0.70;99.90
9437;DHT22;4757;59.334;18.034;2022-12-18T01:13:09;-0.70;99.90
9437;DHT22;4757;59.334;18.034;2022-12-18T01:15:37;-0.70;99.90
9437;DHT22;4757;59.334;18.034;2022-12-18T01:18:05;-0.70;99.90
9437;DHT22;4757;59.334;18.034;2022-12-18T01:20:32;-0.70;99.90
9437;DHT22;4757;59.334;18.034;2022-12-18T01:22:59;-0.70;99.90
9437;DHT22;4757;59.334;18.034;2022-12-18T01:25:27;-0.70;99.90
9437;DHT22;4757;59.334;18.034;2022-12-18T01:27:54;-0.70;99.90
9437;DHT22;4757;59.334;18.034;2022-12-18T01:30:21;-0.70;99.90
9437;DHT22;4757;59.334;18.034;2022-12-18T01:32:48;-0.70;99.90
9437;DHT22;4757;59.334;18.034;2022-12-18T01:35:16;-0.70;99.90
9437;DHT22;4757;59.334;18.034;2022-12-18T01:37:43;-0.70;99.90
9437;DHT22;4757;59.334;18.034;2022-12-18T01:40:11;-0.70;99.90
9437;DHT22;4757;59.334;18.034;2022-12-18T01:42:38;-0.70;99.90
9437;DHT22;4757;59.334;18.034;2022-12-18T01:47:46;-0.60;99.90
9437;DHT22;4757;59.334;18.034;2022-12-18T01:50:30;-0.70;99.90
9437;DHT22;4757;59.334;18.034;2022-12-18T01:53:07;-0.60;99.90
9437;DHT22;4757;59.334;18.034;2022-12-18T01:55:45;-0.60;99.90
9437;DHT22;4757;59.334;18.034;2022-12-18T01:58:13;-0.60;99.90
9437;DHT22;4757;59.334;18.034;2022-12-18T02:00:41;-0.70;99.90
9437;DHT22;4757;59.334;18.034;2022-12-18T02:03:08;-0.60;99.90
9437;DHT22;4757;59.334;18.034;2022-12-18T02:05:45;-0.60;99.90
9437;DHT22;4757;59.334;18.034;2022-12-18T02:08:22;-0.60;99.90
9437;DHT22;4757;59.334;18.034;2022-12-18T02:11:22;-0.60;99.90
9437;DHT22;4757;59.334;18.034;2022-12-18T02:19:37;-0.50;99.90
9437;DHT22;4757;59.334;18.034;2022-12-18T02:25:29;-0.50;99.90
9437;DHT22;4757;59.334;18.034;2022-12-18T02:28:05;-0.60;99.90
9437;DHT22;4757;59.334;18.034;2022-12-18T02:30:35;-0.60;99.90
9437;DHT22;4757;59.334;18.034;2022-12-18T02:33:06;-0.60;99.90
9437;DHT22;4757;59.334;18.034;2022-12-18T02:35:36;-0.60;99.90
9437;DHT22;4757;59.334;18.034;2022-12-18T02:38:06;-0.60;99.90
9437;DHT22;4757;59.334;18.034;2022-12-18T02:40:34;-0.60;99.90
9437;DHT22;4757;59.334;18.034;2022-12-18T02:43:09;-0.60;99.90
9437;DHT22;4757;59.334;18.034;2022-12-18T02:45:47;-0.60;99.90
9437;DHT22;4757;59.334;18.034;2022-12-18T02:48:17;-0.60;99.90
9437;DHT22;4757;59.334;18.034;2022-12-18T02:51:08;-0.50;99.90
9437;DHT22;4757;59.334;18.034;2022-12-18T02:53:43;-0.60;99.90
9437;DHT22;4757;59.334;18.034;2022-12-18T02:56:17;-0.50;99.90
9437;DHT22;4757;59.334;18.034;2022-12-18T02:58:55;-0.60;99.90
9437;DHT22;4757;59.334;18.034;2022-12-18T03:01:33;-0.60;99.90
9437;DHT22;4757;59.334;18.034;2022-12-18T03:04:25;-0.60;99.90
9437;DHT22;4757;59.334;18.034;2022-12-18T03:06:56;-0.60;99.90
9437;DHT22;4757;59.334;18.034;2022-12-18T03:09:41;-0.60;99.90
9437;DHT22;4757;59.334;18.034;2022-12-18T03:12:24;-0.60;99.90
9437;DHT22;4757;59.334;18.034;2022-12-18T03:15:05;-0.60;99.90
9437;DHT22;4757;59.334;18.034;2022-12-18T03:17:37;-0.60;99.90
9437;DHT22;4757;59.334;18.034;2022-12-18T03:20:13;-0.60;99.90
9437;DHT22;4757;59.334;18.034;2022-12-18T03:22:43;-0.60;99.90
9437;DHT22;4757;59.334;18.034;2022-12-18T03:25:13;-0.60;99.90
9437;DHT22;4757;59.334;18.034;2022-12-18T03:27:45;-0.60;99.90
9437;DHT22;4757;59.334;18.034;2022-12-18T03:30:14;-0.60;99.90
9437;DHT22;4757;59.334;18.034;2022-12-18T03:32:49;-0.60;99.90
9437;DHT22;4757;59.334;18.034;2022-12-18T03:35:36;-0.60;99.90
9437;DHT22;4757;59.334;18.034;2022-12-18T03:38:05;-0.70;99.90
9437;DHT22;4757;59.334;18.034;2022-12-18T03:40:59;-0.70;99.90
9437;DHT22;4757;59.334;18.034;2022-12-18T03:46:44;-0.60;99.90
9437;DHT22;4757;59.334;18.034;2022-12-18T03:54:50;-0.70;99.90
9437;DHT22;4757;59.334;18.034;2022-12-18T03:57:24;-0.70;99.90
9437;DHT22;4757;59.334;18.034;2022-12-18T04:00:09;-0.60;99.90
9437;DHT22;4757;59.334;18.034;2022-12-18T04:02:41;-0.60;99.90
9437;DHT22;4757;59.334;18.034;2022-12-18T04:05:10;-0.70;99.90
9437;DHT22;4757;59.334;18.034;2022-12-18T04:07:38;-0.70;99.90
9437;DHT22;4757;59.334;18.034;2022-12-18T04:10:07;-0.70;99.90
9437;DHT22;4757;59.334;18.034;2022-12-18T04:12:37;-0.70;99.90
9437;DHT22;4757;59.334;18.034;2022-12-18T04:15:05;-0.70;99.90
9437;DHT22;4757;59.334;18.034;2022-12-18T04:17:33;-0.70;99.90
9437;DHT22;4757;59.334;18.034;2022-12-18T04:20:00;-0.70;99.90
9437;DHT22;4757;59.334;18.034;2022-12-18T04:22:27;-0.70;99.90
9437;DHT22;4757;59.334;18.034;2022-12-18T04:24:54;-0.70;99.90
9437;DHT22;4757;59.334;18.034;2022-12-18T04:27:21;-0.70;99.90
9437;DHT22;4757;59.334;18.034;2022-12-18T04:29:48;-0.70;99.90
9437;DHT22;4757;59.334;18.034;2022-12-18T04:32:15;-0.70;99.90
9437;DHT22;4757;59.334;18.034;2022-12-18T04:34:44;-0.70;99.90
9437;DHT22;4757;59.334;18.034;2022-12-18T04:37:11;-0.80;99.90
9437;DHT22;4757;59.334;18.034;2022-12-18T04:39:38;-0.70;99.90
9437;DHT22;4757;59.334;18.034;2022-12-18T04:42:06;-0.70;99.90
9437;DHT22;4757;59.334;18.034;2022-12-18T04:44:34;-0.70;99.90
9437;DHT22;4757;59.334;18.034;2022-12-18T04:47:02;-0.70;99.90
9437;DHT22;4757;59.334;18.034;2022-12-18T04:49:29;-0.70;99.90
9437;DHT22;4757;59.334;18.034;2022-12-18T04:51:56;-0.80;99.90
9437;DHT22;4757;59.334;18.034;2022-12-18T04:54:23;-0.80;99.90
9437;DHT22;4757;59.334;18.034;2022-12-18T04:56:50;-0.80;99.90
9437;DHT22;4757;59.334;18.034;2022-12-18T04:59:17;-0.80;99.90
9437;DHT22;4757;59.334;18.034;2022-12-18T05:01:44;-0.70;99.90
9437;DHT22;4757;59.334;18.034;2022-12-18T05:04:12;-0.70;99.90
9437;DHT22;4757;59.334;18.034;2022-12-18T05:06:39;-0.70;99.90
9437;DHT22;4757;59.334;18.034;2022-12-18T05:09:06;-0.80;99.90
9437;DHT22;4757;59.334;18.034;2022-12-18T05:11:33;-0.70;99.90
9437;DHT22;4757;59.334;18.034;2022-12-18T05:14:02;-0.80;99.90
9437;DHT22;4757;59.334;18.034;2022-12-18T05:16:29;-0.80;99.90
9437;DHT22;4757;59.334;18.034;2022-12-18T05:18:56;-0.70;99.90
9437;DHT22;4757;59.334;18.034;2022-12-18T05:21:23;-0.80;99.90
9437;DHT22;4757;59.334;18.034;2022-12-18T05:23:50;-0.80;99.90
9437;DHT22;4757;59.334;18.034;2022-12-18T05:26:18;-0.80;99.90
9437;DHT22;4757;59.334;18.034;2022-12-18T05:28:45;-0.70;99.90
9437;DHT22;4757;59.334;18.034;2022-12-18T05:31:13;-0.80;99.90
9437;DHT22;4757;59.334;18.034;2022-12-18T05:33:40;-0.80;99.90
9437;DHT22;4757;59.334;18.034;2022-12-18T05:36:09;-0.80;99.90
9437;DHT22;4757;59.334;18.034;2022-12-18T05:38:38;-0.70;99.90
9437;DHT22;4757;59.334;18.034;2022-12-18T05:41:06;-0.70;99.90
9437;DHT22;4757;59.334;18.034;2022-12-18T05:43:35;-0.70;99.90
9437;DHT22;4757;59.334;18.034;2022-12-18T05:46:08;-0.70;99.90
9437;DHT22;4757;59.334;18.034;2022-12-18T05:48:37;-0.60;99.90
9437;DHT22;4757;59.334;18.034;2022-12-18T05:51:07;-0.60;99.90
9437;DHT22;4757;59.334;18.034;2022-12-18T05:53:35;-0.60;99.90
9437;DHT22;4757;59.334;18.034;2022-12-18T05:56:05;-0.60;99.90
9437;DHT22;4757;59.334;18.034;2022-12-18T05:58:33;-0.60;99.90
9437;DHT22;4757;59.334;18.034;2022-12-18T06:01:12;-0.60;99.90
9437;DHT22;4757;59.334;18.034;2022-12-18T06:03:40;-0.60;99.90
9437;DHT22;4757;59.334;18.034;2022-12-18T06:06:19;-0.50;99.90
9437;DHT22;4757;59.334;18.034;2022-12-18T06:08:47;-0.50;99.90
9437;DHT22;4757;59.334;18.034;2022-12-18T06:11:17;-0.50;99.90
9437;DHT22;4757;59.334;18.034;2022-12-18T06:13:44;-0.50;99.90
9437;DHT22;4757;59.334;18.034;2022-12-18T06:16:12;-0.50;99.90
9437;DHT22;4757;59.334;18.034;2022-12-18T06:18:39;-0.40;99.90
9437;DHT22;4757;59.334;18.034;2022-12-18T06:21:06;-0.40;99.90
9437;DHT22;4757;59.334;18.034;2022-12-18T06:23:34;-0.40;99.90
9437;DHT22;4757;59.334;18.034;2022-12-18T06:26:07;-0.40;99.90
9437;DHT22;4757;59.334;18.034;2022-12-18T06:28:35;-0.40;99.90
9437;DHT22;4757;59.334;18.034;2022-12-18T06:31:03;-0.40;99.90
9437;DHT22;4757;59.334;18.034;2022-12-18T06:33:31;-0.40;99.90
9437;DHT22;4757;59.334;18.034;2022-12-18T06:36:04;-0.50;99.90
9437;DHT22;4757;59.334;18.034;2022-12-18T06:38:33;-0.50;99.90
9437;DHT22;4757;59.334;18.034;2022-12-18T06:41:00;-0.40;99.90
9437;DHT22;4757;59.334;18.034;2022-12-18T06:43:28;-0.50;99.90
9437;DHT22;4757;59.334;18.034;2022-12-18T06:46:00;-0.40;99.90
9437;DHT22;4757;59.334;18.034;2022-12-18T06:48:27;-0.40;99.90
9437;DHT22;4757;59.334;18.034;2022-12-18T06:50:55;-0.40;99.90
9437;DHT22;4757;59.334;18.034;2022-12-18T06:53:22;-0.40;99.90
9437;DHT22;4757;59.334;18.034;2022-12-18T06:55:49;-0.40;99.90
9437;DHT22;4757;59.334;18.034;2022-12-18T06:58:17;-0.40;99.90
9437;DHT22;4757;59.334;18.034;2022-12-18T07:00:44;-0.40;99.90
9437;DHT22;4757;59.334;18.034;2022-12-18T07:03:11;-0.30;99.90
9437;DHT22;4757;59.334;18.034;2022-12-18T07:05:41;-0.20;99.90
9437;DHT22;4757;59.334;18.034;2022-12-18T07:08:08;-0.30;99.90
9437;DHT22;4757;59.334;18.034;2022-12-18T07:10:45;-0.30;99.90
9437;DHT22;4757;59.334;18.034;2022-12-18T07:13:17;-0.30;99.90
9437;DHT22;4757;59.334;18.034;2022-12-18T07:15:44;-0.30;99.90
9437;DHT22;4757;59.334;18.034;2022-12-18T07:18:11;-0.30;99.90
9437;DHT22;4757;59.334;18.034;2022-12-18T07:20:39;-0.20;99.90
9437;DHT22;4757;59.334;18.034;2022-12-18T07:23:06;-0.20;99.90
9437;DHT22;4757;59.334;18.034;2022-12-18T07:25:34;-0.10;99.90
9437;DHT22;4757;59.334;18.034;2022-12-18T07:28:02;-0.10;99.90
9437;DHT22;4757;59.334;18.034;2022-12-18T07:30:29;0.00;99.90
9437;DHT22;4757;59.334;18.034;2022-12-18T07:32:56;0.00;99.90
9437;DHT22;4757;59.334;18.034;2022-12-18T07:35:23;0.00;99.90
9437;DHT22;4757;59.334;18.034;2022-12-18T07:37:51;0.10;99.90
9437;DHT22;4757;59.334;18.034;2022-12-18T07:40:18;0.10;99.90
9437;DHT22;4757;59.334;18.034;2022-12-18T07:42:45;0.20;99.90
9437;DHT22;4757;59.334;18.034;2022-12-18T07:45:12;0.20;99.90
9437;DHT22;4757;59.334;18.034;2022-12-18T07:47:39;0.20;99.90
9437;DHT22;4757;59.334;18.034;2022-12-18T07:50:08;0.20;99.90
9437;DHT22;4757;59.334;18.034;2022-12-18T07:52:35;0.20;99.90
9437;DHT22;4757;59.334;18.034;2022-12-18T07:55:02;0.30;99.90
9437;DHT22;4757;59.334;18.034;2022-12-18T07:57:30;0.20;99.90
9437;DHT22;4757;59.334;18.034;2022-12-18T08:00:16;0.30;99.90
9437;DHT22;4757;59.334;18.034;2022-12-18T08:02:43;0.30;99.90
9437;DHT22;4757;59.334;18.034;2022-12-18T08:05:11;0.40;99.90
9437;DHT22;4757;59.334;18.034;2022-12-18T08:07:38;0.30;99.90
9437;DHT22;4757;59.334;18.034;2022-12-18T08:10:05;0.30;99.90
9437;DHT22;4757;59.334;18.034;2022-12-18T08:12:33;0.40;99.90
9437;DHT22;4757;59.334;18.034;2022-12-18T08:15:00;0.40;99.90
9437;DHT22;4757;59.334;18.034;2022-12-18T08:17:28;0.40;99.90
9437;DHT22;4757;59.334;18.034;2022-12-18T08:19:55;0.40;99.90
9437;DHT22;4757;59.334;18.034;2022-12-18T08:22:22;0.40;99.90
9437;DHT22;4757;59.334;18.034;2022-12-18T08:24:49;0.40;99.90
9437;DHT22;4757;59.334;18.034;2022-12-18T08:27:16;0.40;99.90
9437;DHT22;4757;59.334;18.034;2022-12-18T08:29:56;0.40;99.90
9437;DHT22;4757;59.334;18.034;2022-12-18T08:32:24;0.50;99.90
9437;DHT22;4757;59.334;18.034;2022-12-18T08:34:53;0.60;99.90
9437;DHT22;4757;59.334;18.034;2022-12-18T08:37:20;0.60;99.90
9437;DHT22;4757;59.334;18.034;2022-12-18T08:39:47;0.60;99.90
9437;DHT22;4757;59.334;18.034;2022-12-18T08:42:14;0.60;99.90
9437;DHT22;4757;59.334;18.034;2022-12-18T08:45:00;0.70;99.90
9437;DHT22;4757;59.334;18.034;2022-12-18T08:47:27;0.70;99.90
9437;DHT22;4757;59.334;18.034;2022-12-18T08:49:55;0.70;99.90
9437;DHT22;4757;59.334;18.034;2022-12-18T08:52:22;0.70;99.90
9437;DHT22;4757;59.334;18.034;2022-12-18T08:54:49;0.80;99.90
9437;DHT22;4757;59.334;18.034;2022-12-18T08:57:16;0.80;99.90
9437;DHT22;4757;59.334;18.034;2022-12-18T08:59:43;0.80;99.90
9437;DHT22;4757;59.334;18.034;2022-12-18T09:02:11;0.80;99.90
9437;DHT22;4757;59.334;18.034;2022-12-18T09:04:38;0.80;99.90
9437;DHT22;4757;59.334;18.034;2022-12-18T09:07:06;0.90;99.90
9437;DHT22;4757;59.334;18.034;2022-12-18T09:09:33;0.90;99.90
9437;DHT22;4757;59.334;18.034;2022-12-18T09:12:00;1.00;99.90
9437;DHT22;4757;59.334;18.034;2022-12-18T09:14:27;1.00;99.90
9437;DHT22;4757;59.334;18.034;2022-12-18T09:16:55;1.00;99.90
9437;DHT22;4757;59.334;18.034;2022-12-18T09:19:22;1.10;99.90
9437;DHT22;4757;59.334;18.034;2022-12-18T09:21:49;1.10;99.90
9437;DHT22;4757;59.334;18.034;2022-12-18T09:24:16;1.10;99.90
9437;DHT22;4757;59.334;18.034;2022-12-18T09:26:44;1.20;99.90
9437;DHT22;4757;59.334;18.034;2022-12-18T09:29:14;1.20;99.90
9437;DHT22;4757;59.334;18.034;2022-12-18T09:31:45;1.20;99.90
9437;DHT22;4757;59.334;18.034;2022-12-18T09:34:12;1.30;99.90
9437;DHT22;4757;59.334;18.034;2022-12-18T09:36:40;1.20;99.90
9437;DHT22;4757;59.334;18.034;2022-12-18T09:39:07;1.30;99.90
9437;DHT22;4757;59.334;18.034;2022-12-18T09:41:42;1.40;99.90
9437;DHT22;4757;59.334;18.034;2022-12-18T09:44:36;1.40;99.90
9437;DHT22;4757;59.334;18.034;2022-12-18T09:49:51;1.50;99.90
9437;DHT22;4757;59.334;18.034;2022-12-18T09:55:05;1.60;99.90
9437;DHT22;4757;59.334;18.034;2022-12-18T09:57:36;1.70;99.90
9437;DHT22;4757;59.334;18.034;2022-12-18T10:00:20;1.70;99.90
9437;DHT22;4757;59.334;18.034;2022-12-18T10:02:49;1.70;99.90
9437;DHT22;4757;59.334;18.034;2022-12-18T10:10:46;1.70;99.90
9437;DHT22;4757;59.334;18.034;2022-12-18T10:16:08;1.80;99.90
9437;DHT22;4757;59.334;18.034;2022-12-18T10:18:53;1.80;99.90
9437;DHT22;4757;59.334;18.034;2022-12-18T10:21:49;1.80;99.90
9437;DHT22;4757;59.334;18.034;2022-12-18T10:27:18;1.90;99.90
9437;DHT22;4757;59.334;18.034;2022-12-18T10:29:45;1.90;99.90
9437;DHT22;4757;59.334;18.034;2022-12-18T10:32:23;1.90;99.90
9437;DHT22;4757;59.334;18.034;2022-12-18T10:34:54;1.90;99.90
9437;DHT22;4757;59.334;18.034;2022-12-18T10:37:28;1.90;99.90
9437;DHT22;4757;59.334;18.034;2022-12-18T10:42:35;2.00;99.90
9437;DHT22;4757;59.334;18.034;2022-12-18T10:45:22;2.00;99.90
9437;DHT22;4757;59.334;18.034;2022-12-18T10:47:50;1.90;99.90
9437;DHT22;4757;59.334;18.034;2022-12-18T10:50:32;1.90;99.90
9437;DHT22;4757;59.334;18.034;2022-12-18T10:53:23;2.00;99.90
9437;DHT22;4757;59.334;18.034;2022-12-18T10:55:53;1.90;99.90
9437;DHT22;4757;59.334;18.034;2022-12-18T10:58:47;1.90;99.90
9437;DHT22;4757;59.334;18.034;2022-12-18T11:01:14;2.00;99.90
9437;DHT22;4757;59.334;18.034;2022-12-18T11:04:00;2.00;99.90
9437;DHT22;4757;59.334;18.034;2022-12-18T11:06:28;2.00;99.90
9437;DHT22;4757;59.334;18.034;2022-12-18T11:09:06;2.10;99.90
9437;DHT22;4757;59.334;18.034;2022-12-18T11:11:53;2.00;99.90
9437;DHT22;4757;59.334;18.034;2022-12-18T11:16:53;2.00;99.90
9437;DHT22;4757;59.334;18.034;2022-12-18T11:19:41;2.00;99.90
9437;DHT22;4757;59.334;18.034;2022-12-18T11:22:26;2.00;99.90
9437;DHT22;4757;59.334;18.034;2022-12-18T11:27:48;2.00;99.90
9437;DHT22;4757;59.334;18.034;2022-12-18T11:30:32;2.00;99.90
9437;DHT22;4757;59.334;18.034;2022-12-18T11:33:13;2.00;99.90
9437;DHT22;4757;59.334;18.034;2022-12-18T11:36:00;2.00;99.90
9437;DHT22;4757;59.334;18.034;2022-12-18T11:38:33;2.00;99.90
9437;DHT22;4757;59.334;18.034;2022-12-18T11:41:21;2.00;99.90
9437;DHT22;4757;59.334;18.034;2022-12-18T11:44:16;2.00;99.90
9437;DHT22;4757;59.334;18.034;2022-12-18T11:46:51;2.00;99.90
9437;DHT22;4757;59.334;18.034;2022-12-18T11:49:26;2.10;99.90
9437;DHT22;4757;59.334;18.034;2022-12-18T11:52:21;2.10;99.90
9437;DHT22;4757;59.334;18.034;2022-12-18T11:54:51;2.10;99.90
9437;DHT22;4757;59.334;18.034;2022-12-18T11:58:23;2.10;99.90
9437;DHT22;4757;59.334;18.034;2022-12-18T12:00:29;2.10;99.90
9437;DHT22;4757;59.334;18.034;2022-12-18T12:06:09;2.10;99.90
9437;DHT22;4757;59.334;18.034;2022-12-18T12:08:49;2.10;99.90
9437;DHT22;4757;59.334;18.034;2022-12-18T12:20:07;2.20;99.90
9437;DHT22;4757;59.334;18.034;2022-12-18T12:25:55;2.30;99.90
9437;DHT22;4757;59.334;18.034;2022-12-18T12:31:54;2.20;99.90
9437;DHT22;4757;59.334;18.034;2022-12-18T12:34:26;2.20;99.90
9437;DHT22;4757;59.334;18.034;2022-12-18T12:39:37;2.30;99.90
9437;DHT22;4757;59.334;18.034;2022-12-18T12:42:31;2.30;99.90
9437;DHT22;4757;59.334;18.034;2022-12-18T12:45:31;2.30;99.90
9437;DHT22;4757;59.334;18.034;2022-12-18T12:48:02;2.30;99.90
9437;DHT22;4757;59.334;18.034;2022-12-18T12:50:33;2.40;99.90
9437;DHT22;4757;59.334;18.034;2022-12-18T12:53:06;2.40;99.90
9437;DHT22;4757;59.334;18.034;2022-12-18T12:55:34;2.40;99.90
9437;DHT22;4757;59.334;18.034;2022-12-18T12:58:31;2.60;99.90
9437;DHT22;4757;59.334;18.034;2022-12-18T13:06:33;2.60;99.90
9437;DHT22;4757;59.334;18.034;2022-12-18T13:09:09;2.60;99.90
9437;DHT22;4757;59.334;18.034;2022-12-18T13:11:47;2.60;99.90
9437;DHT22;4757;59.334;18.034;2022-12-18T13:14:34;2.70;99.90
9437;DHT22;4757;59.334;18.034;2022-12-18T13:22:38;2.70;99.90
9437;DHT22;4757;59.334;18.034;2022-12-18T13:30:58;2.80;99.90
9437;DHT22;4757;59.334;18.034;2022-12-18T13:38:40;2.90;99.90
9437;DHT22;4757;59.334;18.034;2022-12-18T13:43:44;2.90;99.90
9437;DHT22;4757;59.334;18.034;2022-12-18T13:49:17;2.90;99.90
9437;DHT22;4757;59.334;18.034;2022-12-18T13:51:49;2.90;99.90
9437;DHT22;4757;59.334;18.034;2022-12-18T13:54:37;2.80;99.90
9437;DHT22;4757;59.334;18.034;2022-12-18T13:59:52;2.80;99.90
9437;DHT22;4757;59.334;18.034;2022-12-18T14:02:27;2.80;99.90
9437;DHT22;4757;59.334;18.034;2022-12-18T14:04:57;2.90;99.90
9437;DHT22;4757;59.334;18.034;2022-12-18T14:07:28;2.90;99.90
9437;DHT22;4757;59.334;18.034;2022-12-18T14:10:11;2.90;99.90
9437;DHT22;4757;59.334;18.034;2022-12-18T14:13:06;2.90;99.90
9437;DHT22;4757;59.334;18.034;2022-12-18T14:15:42;3.00;99.90
9437;DHT22;4757;59.334;18.034;2022-12-18T14:21:05;2.90;99.90
9437;DHT22;4757;59.334;18.034;2022-12-18T14:23:40;3.00;99.90
9437;DHT22;4757;59.334;18.034;2022-12-18T14:26:29;2.90;99.90
9437;DHT22;4757;59.334;18.034;2022-12-18T14:28:57;3.00;99.90
9437;DHT22;4757;59.334;18.034;2022-12-18T14:31:30;2.90;99.90
9437;DHT22;4757;59.334;18.034;2022-12-18T14:33:58;3.00;99.90
9437;DHT22;4757;59.334;18.034;2022-12-18T14:36:28;3.00;99.90
9437;DHT22;4757;59.334;18.034;2022-12-18T14:38:58;3.00;99.90
9437;DHT22;4757;59.334;18.034;2022-12-18T14:41:26;3.00;99.90
9437;DHT22;4757;59.334;18.034;2022-12-18T14:43:55;3.00;99.90
9437;DHT22;4757;59.334;18.034;2022-12-18T14:46:37;3.00;99.90
9437;DHT22;4757;59.334;18.034;2022-12-18T14:49:21;3.00;99.90
9437;DHT22;4757;59.334;18.034;2022-12-18T14:52:01;3.00;99.90
9437;DHT22;4757;59.334;18.034;2022-12-18T14:54:30;3.00;99.90
9437;DHT22;4757;59.334;18.034;2022-12-18T14:57:25;3.00;99.90
9437;DHT22;4757;59.334;18.034;2022-12-18T14:59:51;3.00;99.90
9437;DHT22;4757;59.334;18.034;2022-12-18T15:02:26;3.00;99.90
9437;DHT22;4757;59.334;18.034;2022-12-18T15:05:21;3.00;99.90
9437;DHT22;4757;59.334;18.034;2022-12-18T15:07:54;2.90;99.90
9437;DHT22;4757;59.334;18.034;2022-12-18T15:10:27;3.00;99.90
9437;DHT22;4757;59.334;18.034;2022-12-18T15:23:36;2.80;99.90
9437;DHT22;4757;59.334;18.034;2022-12-18T15:26:08;2.90;99.90
9437;DHT22;4757;59.334;18.034;2022-12-18T15:28:38;2.90;99.90
9437;DHT22;4757;59.334;18.034;2022-12-18T15:31:20;2.90;99.90
9437;DHT22;4757;59.334;18.034;2022-12-18T15:36:23;2.90;99.90
9437;DHT22;4757;59.334;18.034;2022-12-18T15:38:54;2.90;99.90
9437;DHT22;4757;59.334;18.034;2022-12-18T15:41:35;2.90;99.90
9437;DHT22;4757;59.334;18.034;2022-12-18T15:44:15;3.00;99.90
9437;DHT22;4757;59.334;18.034;2022-12-18T15:46:47;3.00;99.90
9437;DHT22;4757;59.334;18.034;2022-12-18T15:49:15;3.00;99.90
9437;DHT22;4757;59.334;18.034;2022-12-18T15:51:42;3.10;99.90
9437;DHT22;4757;59.334;18.034;2022-12-18T15:54:13;3.00;99.90
9437;DHT22;4757;59.334;18.034;2022-12-18T15:56:42;3.00;99.90
9437;DHT22;4757;59.334;18.034;2022-12-18T15:59:30;3.00;99.90
9437;DHT22;4757;59.334;18.034;2022-12-18T16:01:57;3.00;99.90
9437;DHT22;4757;59.334;18.034;2022-12-18T16:04:24;3.00;99.90
9437;DHT22;4757;59.334;18.034;2022-12-18T16:06:52;3.00;99.90
9437;DHT22;4757;59.334;18.034;2022-12-18T16:09:39;3.00;99.90
9437;DHT22;4757;59.334;18.034;2022-12-18T16:12:10;3.00;99.90
9437;DHT22;4757;59.334;18.034;2022-12-18T16:14:40;3.00;99.90
9437;DHT22;4757;59.334;18.034;2022-12-18T16:17:10;2.90;99.90
9437;DHT22;4757;59.334;18.034;2022-12-18T16:19:38;2.90;99.90
9437;DHT22;4757;59.334;18.034;2022-12-18T16:22:05;2.90;99.90
9437;DHT22;4757;59.334;18.034;2022-12-18T16:24:33;2.90;99.90
9437;DHT22;4757;59.334;18.034;2022-12-18T16:27:03;2.90;99.90
9437;DHT22;4757;59.334;18.034;2022-12-18T16:29:31;2.90;99.90
9437;DHT22;4757;59.334;18.034;2022-12-18T16:31:59;3.00;99.90
9437;DHT22;4757;59.334;18.034;2022-12-18T16:34:28;3.00;99.90
9437;DHT22;4757;59.334;18.034;2022-12-18T16:37:06;3.00;99.90
9437;DHT22;4757;59.334;18.034;2022-12-18T16:39:34;3.00;99.90
9437;DHT22;4757;59.334;18.034;2022-12-18T16:42:08;2.90;99.90
9437;DHT22;4757;59.334;18.034;2022-12-18T16:44:36;2.90;99.90
9437;DHT22;4757;59.334;18.034;2022-12-18T16:47:06;2.90;99.90
9437;DHT22;4757;59.334;18.034;2022-12-18T16:49:35;2.90;99.90
9437;DHT22;4757;59.334;18.034;2022-12-18T16:52:04;2.90;99.90
9437;DHT22;4757;59.334;18.034;2022-12-18T16:54:34;2.80;99.90
9437;DHT22;4757;59.334;18.034;2022-12-18T16:57:03;2.90;99.90
9437;DHT22;4757;59.334;18.034;2022-12-18T16:59:31;2.80;99.90
9437;DHT22;4757;59.334;18.034;2022-12-18T17:01:58;2.80;99.90
9437;DHT22;4757;59.334;18.034;2022-12-18T17:04:25;2.80;99.90
9437;DHT22;4757;59.334;18.034;2022-12-18T17:06:52;2.80;99.90
9437;DHT22;4757;59.334;18.034;2022-12-18T17:09:20;2.80;99.90
9437;DHT22;4757;59.334;18.034;2022-12-18T17:11:52;2.80;99.90
9437;DHT22;4757;59.334;18.034;2022-12-18T17:14:21;2.70;99.90
9437;DHT22;4757;59.334;18.034;2022-12-18T17:16:49;2.80;99.90
9437;DHT22;4757;59.334;18.034;2022-12-18T17:19:36;2.70;99.90
9437;DHT22;4757;59.334;18.034;2022-12-18T17:22:03;2.70;99.90
9437;DHT22;4757;59.334;18.034;2022-12-18T17:24:30;2.70;99.90
9437;DHT22;4757;59.334;18.034;2022-12-18T17:27:02;2.70;99.90
9437;DHT22;4757;59.334;18.034;2022-12-18T17:29:29;2.70;99.90
9437;DHT22;4757;59.334;18.034;2022-12-18T17:31:56;2.60;99.90
9437;DHT22;4757;59.334;18.034;2022-12-18T17:34:26;2.60;99.90
9437;DHT22;4757;59.334;18.034;2022-12-18T17:36:53;2.60;99.90
9437;DHT22;4757;59.334;18.034;2022-12-18T17:39:22;2.60;99.90
9437;DHT22;4757;59.334;18.034;2022-12-18T17:41:49;2.60;99.90
9437;DHT22;4757;59.334;18.034;2022-12-18T17:44:17;2.60;99.90
9437;DHT22;4757;59.334;18.034;2022-12-18T17:46:44;2.60;99.90
9437;DHT22;4757;59.334;18.034;2022-12-18T17:49:12;2.70;99.90
9437;DHT22;4757;59.334;18.034;2022-12-18T17:51:40;2.60;99.90
9437;DHT22;4757;59.334;18.034;2022-12-18T17:54:11;2.60;99.90
9437;DHT22;4757;59.334;18.034;2022-12-18T17:56:38;2.50;99.90
9437;DHT22;4757;59.334;18.034;2022-12-18T17:59:05;2.50;99.90
9437;DHT22;4757;59.334;18.034;2022-12-18T18:01:33;2.50;99.90
9437;DHT22;4757;59.334;18.034;2022-12-18T18:04:06;2.50;99.90
9437;DHT22;4757;59.334;18.034;2022-12-18T18:06:34;2.50;99.90
9437;DHT22;4757;59.334;18.034;2022-12-18T18:09:05;2.50;99.90
9437;DHT22;4757;59.334;18.034;2022-12-18T18:11:41;2.50;99.90
9437;DHT22;4757;59.334;18.034;2022-12-18T18:14:27;2.40;99.90
9437;DHT22;4757;59.334;18.034;2022-12-18T18:16:55;2.40;99.90